Time;durP1;ratioP1;P1;durP2;ratioP2;P2;SDS_P1;SDS_P2;PMS_P1;PMS_P2;Temp;Humidity;BMP_temperature;BMP_pressure;BME280_temperature;BME280_humidity;BME280_pressure;Samples;Min_cycle;Max_cycle;Signal;HPM_P1;HPM_P2
2022/08/14 00:02:16;;;;;;;29.93;10.40;;;;;;;17.72;77.88;101004.47;5004913;28;20464;-85
2022/08/14 00:04:42;;;;;;;27.50;10.77;;;;;;;17.85;75.97;100996.91;5004278;28;20413;-84
2022/08/14 00:07:09;;;;;;;12.13;9.00;;;;;;;17.95;73.84;101002.56;4985000;28;20037;-82
2022/08/14 00:09:35;;;;;;;14.00;9.27;;;;;;;17.94;75.02;101000.91;4986344;28;20064;-83
2022/08/14 00:12:00;;;;;;;11.97;9.03;;;;;;;18.03;72.93;100998.50;5004836;28;20069;-83
2022/08/14 00:14:27;;;;;;;9.23;8.10;;;;;;;18.18;71.17;100997.84;5004796;28;20032;-84
2022/08/14 00:16:52;;;;;;;12.73;8.43;;;;;;;18.43;68.30;100996.41;5005056;28;20041;-85
2022/08/14 00:19:17;;;;;;;11.33;7.80;;;;;;;18.47;68.07;100981.13;5004963;28;21334;-83
2022/08/14 00:21:43;;;;;;;9.03;7.30;;;;;;;18.62;67.59;100980.38;5004806;28;20669;-82
2022/08/14 00:24:08;;;;;;;8.77;7.33;;;;;;;18.86;65.77;100975.34;5003778;28;20096;-83
2022/08/14 00:26:34;;;;;;;9.80;7.37;;;;;;;18.85;66.17;100980.03;5004413;28;20038;-83
2022/08/14 00:28:59;;;;;;;10.00;7.40;;;;;;;18.99;65.04;100980.41;5004579;28;20038;-82
2022/08/14 00:31:26;;;;;;;10.20;7.63;;;;;;;19.10;65.38;100981.31;4983995;28;20053;-82
2022/08/14 00:33:52;;;;;;;8.97;7.37;;;;;;;19.18;64.98;100967.06;5004473;28;20058;-84
2022/08/14 00:36:17;;;;;;;9.57;7.70;;;;;;;19.20;64.87;100972.28;5004076;28;20442;-83
2022/08/14 00:38:42;;;;;;;9.67;8.00;;;;;;;19.28;64.25;100960.78;4984505;28;20036;-84
2022/08/14 00:41:08;;;;;;;10.40;7.83;;;;;;;19.37;64.28;100967.44;4983183;28;20491;-84
2022/08/14 00:43:35;;;;;;;9.03;7.10;;;;;;;19.36;64.15;100956.72;5004110;28;20057;-85
2022/08/14 00:46:06;;;;;;;11.30;7.97;;;;;;;19.27;65.06;100958.31;4984570;28;21393;-82
2022/08/14 00:48:32;;;;;;;10.83;7.83;;;;;;;19.28;64.00;100941.56;5004328;28;20030;-83
2022/08/14 00:50:58;;;;;;;9.30;8.30;;;;;;;19.39;63.35;100957.00;5005917;28;21963;-83
2022/08/14 00:53:24;;;;;;;11.73;8.50;;;;;;;19.31;64.23;100954.78;5007508;28;20170;-83
2022/08/14 00:55:50;;;;;;;10.00;8.10;;;;;;;19.36;63.72;100948.47;4988734;28;20038;-85
2022/08/14 00:58:31;;;;;;;10.10;8.17;;;;;;;19.27;64.51;100953.66;5008058;28;20034;-86
2022/08/14 01:01:07;;;;;;;9.90;8.17;;;;;;;19.31;64.48;100948.44;4988900;28;20051;-84
2022/08/14 01:03:36;;;;;;;11.77;8.70;;;;;;;19.24;64.94;100937.69;5008762;28;20046;-86
2022/08/14 01:06:02;;;;;;;11.67;8.50;;;;;;;19.30;64.17;100941.31;5007328;28;20029;-85
2022/08/14 01:08:29;;;;;;;12.13;8.50;;;;;;;19.32;64.30;100944.59;5006892;28;20044;-83
2022/08/14 01:10:57;;;;;;;13.73;8.80;;;;;;;19.29;64.36;100931.41;5005019;28;20055;-82
2022/08/14 01:13:29;;;;;;;9.13;8.23;;;;;;;19.34;63.24;100921.25;5007971;28;20033;-84
2022/08/14 01:16:01;;;;;;;13.13;8.83;;;;;;;19.38;62.74;100930.63;5006564;28;20038;-82
2022/08/14 01:21:14;;;;;;;10.80;7.90;;;;;;;19.42;63.07;100911.69;5007985;28;20063;-84
2022/08/14 01:23:47;;;;;;;13.03;8.47;;;;;;;19.40;62.97;100906.44;5007342;28;20076;-85
2022/08/14 01:26:14;;;;;;;10.03;8.00;;;;;;;19.44;62.60;100906.72;5006666;28;20033;-83
2022/08/14 01:28:41;;;;;;;12.00;8.13;;;;;;;19.50;62.19;100910.31;5007028;28;20030;-85
2022/08/14 01:31:15;;;;;;;10.73;8.17;;;;;;;19.49;62.17;100900.44;5007178;28;20057;-83
2022/08/14 01:33:45;;;;;;;11.18;7.65;;;;;;;19.49;62.07;100905.94;4987274;28;20038;-84
2022/08/14 01:36:11;;;;;;;9.13;7.73;;;;;;;19.56;61.85;100907.31;5007133;28;20453;-85
2022/08/14 01:38:38;;;;;;;9.20;7.80;;;;;;;19.56;61.57;100901.81;5007017;28;20358;-84
2022/08/14 01:41:11;;;;;;;9.47;7.73;;;;;;;19.60;61.29;100907.63;5007019;28;20042;-84
2022/08/14 01:43:47;;;;;;;11.20;7.70;;;;;;;19.62;61.42;100912.84;5006964;28;20040;-83
2022/08/14 01:46:15;;;;;;;10.97;7.90;;;;;;;19.63;61.13;100901.56;5007396;28;20042;-83
2022/08/14 01:48:43;;;;;;;10.07;7.63;;;;;;;19.55;61.29;100896.59;5006883;28;20037;-82
2022/08/14 01:51:10;;;;;;;8.90;7.57;;;;;;;19.57;61.50;100902.66;5006195;28;20049;-83
2022/08/14 01:53:36;;;;;;;9.30;7.53;;;;;;;19.58;61.09;100904.28;5006889;28;20060;-84
2022/08/14 01:56:04;;;;;;;11.07;7.93;;;;;;;19.56;61.11;100903.75;5006960;28;20038;-85
2022/08/14 01:58:30;;;;;;;9.07;7.43;;;;;;;19.48;61.87;100902.34;5006237;28;20042;-83
2022/08/14 02:00:57;;;;;;;10.87;7.70;;;;;;;19.44;62.37;100903.16;4987568;28;20056;-84
2022/08/14 02:03:27;;;;;;;11.13;8.20;;;;;;;19.41;62.19;100915.53;5006281;28;20117;-83
2022/08/14 02:05:58;;;;;;;10.23;8.17;;;;;;;19.13;65.50;100908.53;5006905;28;20037;-83
2022/08/14 02:08:29;;;;;;;11.13;8.83;;;;;;;19.01;65.83;100912.34;5006432;28;20061;-85
2022/08/14 02:13:42;;;;;;;10.13;7.70;;;;;;;19.16;64.21;100900.59;5005747;28;20148;-83
2022/08/14 02:16:09;;;;;;;9.23;7.97;;;;;;;19.11;64.46;100905.22;4988118;28;20124;-83
2022/08/14 02:18:35;;;;;;;9.80;8.23;;;;;;;18.97;65.03;100900.25;4990367;28;20103;-83
2022/08/14 02:21:02;;;;;;;11.07;9.00;;;;;;;18.80;65.99;100900.38;5006170;28;21986;-83
2022/08/14 02:23:28;;;;;;;19.37;8.73;;;;;;;18.56;67.81;100899.94;5006391;28;20249;-83
2022/08/14 02:25:53;;;;;;;17.73;8.93;;;;;;;18.53;68.29;100900.47;5005991;28;20045;-82
2022/08/14 02:28:19;;;;;;;16.43;9.03;;;;;;;18.52;68.56;100910.66;5006402;28;20139;-83
2022/08/14 02:30:44;;;;;;;13.17;8.23;;;;;;;18.56;68.25;100905.44;5006619;28;20057;-83
2022/08/14 02:33:10;;;;;;;9.90;8.40;;;;;;;18.54;66.78;100902.97;4986216;28;20183;-85
2022/08/14 02:35:39;;;;;;;11.47;8.93;;;;;;;18.48;66.37;100890.31;4986633;28;20044;-82
2022/08/14 02:38:05;;;;;;;10.90;9.33;;;;;;;18.48;67.56;100898.53;5005828;28;20116;-83
2022/08/14 02:40:31;;;;;;;10.50;8.93;;;;;;;18.44;67.43;100891.94;5005340;28;20049;-82
2022/08/14 02:42:57;;;;;;;11.40;9.67;;;;;;;18.18;68.63;100889.00;5006213;28;20351;-83
2022/08/14 02:45:22;;;;;;;12.80;9.13;;;;;;;18.05;70.46;100892.16;4995250;28;20041;-83
2022/08/14 02:47:48;;;;;;;11.73;9.13;;;;;;;18.10;70.17;100885.88;4984822;28;20087;-84
2022/08/14 02:50:16;;;;;;;15.47;9.30;;;;;;;17.96;70.85;100893.72;5006045;28;20241;-83
2022/08/14 02:52:41;;;;;;;12.00;9.57;;;;;;;17.83;70.78;100886.75;4989644;28;20041;-83
2022/08/14 02:55:08;;;;;;;10.10;9.00;;;;;;;17.75;71.06;100889.91;4985287;28;20038;-84
2022/08/14 02:57:33;;;;;;;11.03;9.90;;;;;;;17.65;71.74;100896.97;4984313;28;20061;-83
2022/08/14 02:59:59;;;;;;;11.00;9.77;;;;;;;17.58;71.88;100887.28;5006068;28;20117;-83
2022/08/14 03:02:25;;;;;;;11.03;9.83;;;;;;;17.41;72.61;100890.94;5005384;28;20033;-83
2022/08/14 03:04:53;;;;;;;11.60;9.60;;;;;;;17.26;73.87;100880.66;4969747;28;20084;-82
2022/08/14 03:07:18;;;;;;;16.97;9.80;;;;;;;17.26;73.98;100885.28;4969225;28;20596;-83
2022/08/14 03:09:44;;;;;;;24.33;10.17;;;;;;;17.25;74.09;100881.72;5004864;28;21373;-83
2022/08/14 03:12:09;;;;;;;17.13;9.87;;;;;;;17.27;73.71;100876.84;5005429;28;20045;-82
2022/08/14 03:14:38;;;;;;;20.57;10.80;;;;;;;17.27;74.04;100879.56;5004095;28;20142;-83
2022/08/14 03:17:37;;;;;;;16.23;10.17;;;;;;;17.20;73.54;100871.56;5005033;28;20064;-82
2022/08/14 03:20:05;;;;;;;14.03;10.60;;;;;;;16.91;74.67;100870.91;5005205;28;20065;-84
2022/08/14 03:22:31;;;;;;;12.37;10.60;;;;;;;16.85;75.03;100869.16;5004759;28;20111;-82
2022/08/14 03:24:57;;;;;;;12.33;11.03;;;;;;;16.93;74.58;100862.44;5004966;28;20364;-82
2022/08/14 03:27:32;;;;;;;15.40;11.23;;;;;;;17.00;74.33;100869.38;4985233;28;20038;-83
2022/08/14 03:29:57;;;;;;;13.50;11.40;;;;;;;16.90;75.02;100869.25;4992800;28;20041;-84
2022/08/14 03:32:23;;;;;;;14.77;10.87;;;;;;;16.89;75.46;100873.09;4985971;28;20120;-83
2022/08/14 03:34:49;;;;;;;16.97;10.67;;;;;;;16.64;76.78;100871.59;5005667;28;20034;-84
2022/08/14 03:37:14;;;;;;;63.07;13.23;;;;;;;16.57;77.04;100870.97;5005102;28;20084;-84
2022/08/14 03:39:40;;;;;;;28.80;11.80;;;;;;;16.60;76.92;100864.97;4986023;28;20033;-85
2022/08/14 03:42:05;;;;;;;19.57;11.13;;;;;;;16.61;76.69;100860.34;5005044;28;20034;-84
2022/08/14 03:44:33;;;;;;;14.23;10.93;;;;;;;16.45;76.94;100856.56;4985825;28;20479;-84
2022/08/14 03:46:58;;;;;;;14.00;10.93;;;;;;;16.38;77.27;100862.19;5005633;28;20658;-85
2022/08/14 03:49:24;;;;;;;11.93;10.63;;;;;;;16.38;77.58;100851.25;5005121;28;20418;-82
2022/08/14 03:51:49;;;;;;;15.07;11.50;;;;;;;16.30;78.00;100854.41;5004128;28;20038;-88
2022/08/14 03:54:15;;;;;;;16.73;11.63;;;;;;;16.29;77.92;100863.69;5005211;28;20619;-83
2022/08/14 03:56:43;;;;;;;16.17;11.93;;;;;;;16.18;78.04;100868.16;5004869;28;20068;-84
2022/08/14 03:59:10;;;;;;;13.00;11.60;;;;;;;16.15;78.10;100863.22;5004338;28;20041;-84
2022/08/14 04:01:38;;;;;;;14.97;12.13;;;;;;;16.20;78.18;100861.38;5005752;28;20041;-84
2022/08/14 04:04:05;;;;;;;13.83;12.30;;;;;;;16.08;78.27;100857.91;5004537;28;20596;-84
2022/08/14 04:06:35;;;;;;;12.97;11.57;;;;;;;16.20;77.92;100855.09;4984732;28;21368;-83
2022/08/14 04:09:01;;;;;;;14.17;11.60;;;;;;;16.06;78.11;100857.34;5004499;28;20029;-82
2022/08/14 04:11:28;;;;;;;14.90;11.90;;;;;;;15.98;79.04;100853.09;5004955;28;20099;-85
2022/08/14 04:13:56;;;;;;;15.17;11.70;;;;;;;15.92;79.33;100854.09;5004040;28;20049;-85
2022/08/14 04:16:22;;;;;;;15.37;12.23;;;;;;;15.84;79.46;100851.75;5006385;28;20045;-82
2022/08/14 04:18:56;;;;;;;13.47;11.87;;;;;;;15.87;79.73;100845.81;5004651;28;20149;-85
2022/08/14 04:21:24;;;;;;;14.40;12.15;;;;;;;15.80;79.63;100851.44;5004247;28;20045;-84
2022/08/14 04:23:51;;;;;;;15.97;13.07;;;;;;;15.80;79.72;100845.13;5004323;28;20037;-82
2022/08/14 04:26:20;;;;;;;15.57;12.87;;;;;;;15.87;79.87;100843.09;5005914;28;20115;-86
2022/08/14 04:28:47;;;;;;;14.90;12.57;;;;;;;15.77;80.32;100837.41;5008428;28;20396;-83
2022/08/14 04:31:23;;;;;;;14.47;12.97;;;;;;;15.68;80.38;100840.53;5008446;28;20053;-87
2022/08/14 04:33:51;;;;;;;15.13;12.60;;;;;;;15.67;80.87;100844.34;5008213;28;20095;-84
2022/08/14 04:44:53;;;;;;;16.67;13.45;;;;;;;15.82;79.92;100832.06;4992089;28;20685;-82
2022/08/14 04:50:04;;;;;;;15.82;14.23;;;;;;;15.86;79.99;100828.59;5007936;28;20464;-85
2022/08/14 04:52:30;;;;;;;19.07;14.27;;;;;;;15.85;80.50;100824.19;5008223;28;20048;-84
2022/08/14 04:54:56;;;;;;;17.40;13.50;;;;;;;15.80;81.13;100823.28;5008013;28;20389;-82
2022/08/14 04:57:22;;;;;;;16.97;14.00;;;;;;;15.77;81.71;100824.56;4989130;28;20052;-83
2022/08/14 04:59:47;;;;;;;16.83;14.63;;;;;;;15.81;82.16;100819.47;5007297;28;20398;-83
2022/08/14 05:02:13;;;;;;;16.03;14.17;;;;;;;15.88;81.56;100814.66;5007749;28;20152;-84
2022/08/14 05:04:39;;;;;;;15.67;13.97;;;;;;;15.86;82.65;100814.09;4988424;28;20152;-84
2022/08/14 05:07:04;;;;;;;16.07;13.70;;;;;;;15.93;82.21;100812.03;5006809;28;20038;-85
2022/08/14 05:09:30;;;;;;;17.43;13.27;;;;;;;15.97;82.14;100810.44;5008108;28;20038;-84
2022/08/14 05:11:55;;;;;;;17.97;14.00;;;;;;;15.98;82.45;100814.00;4986232;28;20053;-84
2022/08/14 05:14:22;;;;;;;17.07;14.00;;;;;;;16.03;82.52;100811.34;5007241;28;20359;-84
2022/08/14 05:16:47;;;;;;;18.03;14.13;;;;;;;16.16;82.20;100816.50;5007626;28;20041;-82
2022/08/14 05:19:14;;;;;;;16.37;14.33;;;;;;;16.15;82.64;100809.34;5007367;28;20037;-84
2022/08/14 05:21:40;;;;;;;18.40;15.97;;;;;;;16.29;82.23;100814.47;5007220;28;20049;-82
2022/08/14 05:24:06;;;;;;;16.87;15.00;;;;;;;16.30;82.73;100822.44;5007452;28;20117;-84
2022/08/14 05:26:31;;;;;;;16.07;14.37;;;;;;;16.43;82.82;100812.22;5006861;28;20038;-84
2022/08/14 05:29:04;;;;;;;17.93;16.03;;;;;;;16.53;81.82;100812.38;5008080;28;20675;-85
2022/08/14 05:31:29;;;;;;;18.73;16.80;;;;;;;16.58;80.69;100806.97;5007363;28;20447;-82
2022/08/14 05:33:55;;;;;;;20.20;17.00;;;;;;;16.66;81.25;100806.53;4987369;28;20219;-82
2022/08/14 05:36:20;;;;;;;19.30;17.30;;;;;;;16.84;79.70;100810.84;5007754;28;20516;-82
2022/08/14 05:38:47;;;;;;;19.47;17.17;;;;;;;16.92;80.48;100804.16;5006411;28;20911;-85
2022/08/14 05:41:17;;;;;;;20.60;17.73;;;;;;;17.00;78.17;100802.88;5007631;28;20618;-82
2022/08/14 05:43:46;;;;;;;19.73;17.10;;;;;;;17.15;77.80;100802.22;5006562;28;20176;-84
2022/08/14 05:46:14;;;;;;;21.03;17.93;;;;;;;17.32;76.56;100805.66;5007180;28;20037;-85
2022/08/14 05:48:39;;;;;;;20.53;17.23;;;;;;;17.43;76.79;100803.88;5007835;28;20029;-83
2022/08/14 05:51:05;;;;;;;19.73;17.13;;;;;;;17.59;75.98;100815.00;5007261;28;20033;-84
2022/08/14 05:53:31;;;;;;;19.43;17.33;;;;;;;17.70;76.66;100812.06;5006944;28;21294;-85
2022/08/14 05:55:57;;;;;;;18.50;16.50;;;;;;;17.82;74.36;100800.13;5006490;28;20599;-84
2022/08/14 05:58:23;;;;;;;22.07;17.53;;;;;;;17.97;74.29;100808.47;5007424;28;20042;-83
2022/08/14 06:00:49;;;;;;;18.73;16.77;;;;;;;18.12;75.38;100804.22;4986184;28;20033;-84
2022/08/14 06:03:18;;;;;;;19.33;17.13;;;;;;;18.23;73.43;100801.25;4990777;28;20038;-84
2022/08/14 06:05:46;;;;;;;20.50;16.77;;;;;;;18.35;73.28;100805.72;5006415;28;20228;-83
2022/08/14 06:08:18;;;;;;;19.37;16.33;;;;;;;18.49;71.90;100808.81;5007001;28;20117;-84
2022/08/14 06:10:44;;;;;;;19.50;16.33;;;;;;;18.59;72.25;100808.91;5006316;28;20033;-83
2022/08/14 06:13:09;;;;;;;20.10;16.70;;;;;;;18.72;71.83;100800.16;5006275;28;20068;-82
2022/08/14 06:15:35;;;;;;;19.53;16.23;;;;;;;18.89;71.49;100804.66;5004250;28;20048;-84
2022/08/14 06:18:03;;;;;;;19.80;16.60;;;;;;;18.99;71.19;100806.63;5005225;28;20753;-83
2022/08/14 06:20:29;;;;;;;19.17;16.70;;;;;;;19.09;70.62;100808.56;5006008;28;20068;-84
2022/08/14 06:22:55;;;;;;;19.50;16.93;;;;;;;19.23;70.51;100813.28;4989173;28;20160;-83
2022/08/14 06:25:21;;;;;;;19.60;17.17;;;;;;;19.36;69.28;100803.69;5007293;28;20046;-83
2022/08/14 06:27:47;;;;;;;21.43;16.83;;;;;;;19.51;69.67;100810.31;5005796;28;20046;-86
2022/08/14 06:30:22;;;;;;;20.90;16.77;;;;;;;19.62;68.86;100797.41;5005864;28;20069;-84
2022/08/14 06:32:48;;;;;;;19.53;16.63;;;;;;;19.77;68.63;100805.63;5006539;28;20495;-83
2022/08/14 06:35:17;;;;;;;19.48;16.70;;;;;;;19.89;68.01;100788.91;5005796;28;20134;-83
2022/08/14 06:37:42;;;;;;;19.30;15.93;;;;;;;20.10;67.86;100797.97;5006076;28;21419;-83
2022/08/14 06:40:09;;;;;;;19.90;16.48;;;;;;;20.28;67.75;100801.22;5005820;28;20037;-83
2022/08/14 06:42:35;;;;;;;18.48;15.27;;;;;;;20.40;67.23;100799.03;4987016;28;20036;-83
2022/08/14 06:45:00;;;;;;;19.98;15.65;;;;;;;20.60;67.31;100806.38;4985390;28;20034;-83
2022/08/14 06:47:26;;;;;;;18.08;14.68;;;;;;;20.74;66.51;100790.94;5005358;28;20103;-84
2022/08/14 06:49:51;;;;;;;17.45;14.48;;;;;;;20.90;65.96;100796.38;5005650;28;20030;-82
2022/08/14 06:52:17;;;;;;;18.13;14.55;;;;;;;21.05;65.51;100790.81;4985621;28;20049;-82
2022/08/14 06:55:03;;;;;;;17.63;14.18;;;;;;;21.22;65.44;100789.59;5005620;28;20473;-83
2022/08/14 06:57:37;;;;;;;18.92;13.70;;;;;;;21.41;64.59;100787.00;5005803;28;20395;-84
2022/08/14 07:00:06;;;;;;;15.73;13.00;;;;;;;21.54;64.03;100791.91;5005105;28;20560;-84
2022/08/14 07:08:00;;;;;;;17.15;12.93;;;;;;;22.05;62.63;100768.56;5006260;28;20164;-83
2022/08/14 07:10:25;;;;;;;14.68;11.95;;;;;;;22.15;60.99;100773.16;5006157;28;20041;-83
2022/08/14 07:12:51;;;;;;;14.93;11.48;;;;;;;22.30;61.05;100763.88;4969754;28;20042;-84
2022/08/14 07:15:16;;;;;;;12.25;10.95;;;;;;;22.52;60.86;100779.13;5006704;28;20700;-82
2022/08/14 07:17:49;;;;;;;14.73;11.48;;;;;;;22.71;61.13;100785.53;5005882;28;20037;-82
2022/08/14 07:20:17;;;;;;;14.98;11.25;;;;;;;22.80;58.52;100779.34;4985090;28;20045;-83
2022/08/14 07:22:42;;;;;;;19.13;11.65;;;;;;;22.89;57.60;100772.06;5006252;28;21378;-81
2022/08/14 07:25:08;;;;;;;13.05;10.23;;;;;;;23.07;57.69;100770.41;4986242;28;20080;-82
2022/08/14 07:27:33;;;;;;;13.35;10.45;;;;;;;23.19;56.88;100767.25;5005592;28;20037;-85
2022/08/14 07:30:02;;;;;;;11.93;9.68;;;;;;;23.37;58.18;100777.47;5006261;28;20066;-82
2022/08/14 07:32:27;;;;;;;11.98;10.02;;;;;;;23.45;56.24;100770.44;5005683;28;20066;-85
2022/08/14 07:34:53;;;;;;;11.38;10.18;;;;;;;23.51;55.38;100779.47;5005200;28;20136;-86
2022/08/14 07:37:18;;;;;;;12.77;9.65;;;;;;;23.69;55.34;100783.31;4985366;28;20087;-86
2022/08/14 07:39:44;;;;;;;13.35;9.60;;;;;;;23.77;54.40;100777.09;5005619;28;20048;-85
2022/08/14 07:42:09;;;;;;;12.75;9.15;;;;;;;23.93;54.54;100774.91;5005602;28;20042;-83
2022/08/14 07:44:34;;;;;;;11.23;9.13;;;;;;;24.04;54.41;100773.59;5005874;28;20046;-83
2022/08/14 07:47:00;;;;;;;12.45;8.88;;;;;;;24.26;53.76;100770.16;5005213;28;20041;-84
2022/08/14 07:49:26;;;;;;;11.40;8.95;;;;;;;24.33;52.54;100771.69;5005039;28;20045;-84
2022/08/14 07:51:52;;;;;;;12.43;9.63;;;;;;;24.44;52.49;100773.97;5004982;28;20125;-83
2022/08/14 07:54:17;;;;;;;10.52;8.65;;;;;;;24.60;52.83;100762.56;4989106;28;20443;-85
2022/08/14 07:56:43;;;;;;;10.40;8.90;;;;;;;24.72;52.18;100771.19;5004930;28;20478;-84
2022/08/14 07:59:08;;;;;;;11.30;8.90;;;;;;;24.91;52.01;100771.09;5005717;28;20104;-83
2022/08/14 08:01:34;;;;;;;11.35;9.85;;;;;;;24.98;50.75;100770.63;5007259;28;20045;-84
2022/08/14 08:04:02;;;;;;;12.30;9.25;;;;;;;25.09;51.13;100769.28;5008747;28;20043;-84
2022/08/14 08:06:28;;;;;;;12.07;8.48;;;;;;;25.38;51.93;100773.66;5009793;28;20369;-81
2022/08/14 08:08:57;;;;;;;11.50;9.02;;;;;;;25.44;50.58;100777.09;5008998;28;20037;-83
2022/08/14 08:11:25;;;;;;;10.75;8.82;;;;;;;25.51;49.07;100785.00;5008135;28;20034;-83
2022/08/14 08:13:54;;;;;;;12.18;9.02;;;;;;;25.59;48.70;100779.53;5008416;28;20057;-84
2022/08/14 08:16:22;;;;;;;9.80;8.63;;;;;;;25.68;47.26;100781.53;5008503;28;20037;-83
2022/08/14 08:18:49;;;;;;;12.93;8.55;;;;;;;25.91;48.21;100787.88;5008220;28;20039;-88
2022/08/14 08:21:15;;;;;;;10.23;8.93;;;;;;;26.00;48.20;100777.63;5008427;28;21399;-84
2022/08/14 08:23:50;;;;;;;12.93;8.60;;;;;;;26.19;48.87;100771.06;5008919;28;20037;-83
2022/08/14 08:26:16;;;;;;;11.27;8.90;;;;;;;26.29;47.65;100766.06;4992854;28;20121;-84
2022/08/14 08:28:41;;;;;;;10.07;8.07;;;;;;;26.55;47.39;100759.78;4991028;28;20187;-83
2022/08/14 08:31:06;;;;;;;11.07;8.77;;;;;;;26.78;47.16;100765.25;5008301;28;20158;-85
2022/08/14 08:33:34;;;;;;;10.88;9.75;;;;;;;26.83;46.48;100769.84;4992554;28;20300;-85
2022/08/14 08:36:05;;;;;;;10.18;8.65;;;;;;;27.05;46.47;100761.38;5008240;28;20432;-83
2022/08/14 08:38:31;;;;;;;11.90;9.40;;;;;;;27.36;46.24;100759.56;5008079;28;20036;-80
2022/08/14 08:40:58;;;;;;;11.55;10.07;;;;;;;27.56;46.59;100758.91;5007386;28;20474;-81
2022/08/14 08:43:29;;;;;;;11.38;9.52;;;;;;;27.86;47.01;100761.81;5007809;28;20041;-81
2022/08/14 08:46:13;;;;;;;12.30;9.80;;;;;;;28.21;46.97;100755.34;5000877;28;20037;-84
2022/08/14 08:48:56;;;;;;;13.75;9.85;;;;;;;28.45;45.46;100760.28;4989623;28;20029;-82
2022/08/14 08:51:40;;;;;;;12.20;9.25;;;;;;;28.53;44.49;100764.19;5008362;28;20117;-84
2022/08/14 08:54:08;;;;;;;10.88;8.93;;;;;;;28.73;43.40;100757.06;5007769;28;20047;-82
2022/08/14 08:56:39;;;;;;;10.82;8.73;;;;;;;29.10;43.43;100760.91;5007536;28;20041;-82
2022/08/14 08:59:34;;;;;;;11.48;9.13;;;;;;;29.71;43.53;100770.72;5007998;28;20030;-82
2022/08/14 09:02:05;;;;;;;9.32;8.30;;;;;;;29.96;41.94;100768.84;4985730;28;20076;-84
2022/08/14 09:04:43;;;;;;;10.90;8.60;;;;;;;30.51;40.92;100753.91;5007646;28;20037;-81
2022/08/14 09:07:09;;;;;;;9.65;8.60;;;;;;;30.62;38.92;100750.25;5007480;28;20055;-81
2022/08/14 09:09:49;;;;;;;8.20;7.22;;;;;;;30.97;39.44;100751.72;5007996;28;20088;-84
2022/08/14 09:12:17;;;;;;;9.10;8.15;;;;;;;31.18;37.39;100759.97;5007571;28;20129;-83
2022/08/14 09:14:42;;;;;;;9.77;7.95;;;;;;;31.40;37.25;100763.38;4987378;28;20161;-82
2022/08/14 09:17:08;;;;;;;8.80;7.63;;;;;;;31.72;36.67;100752.31;5007057;28;21822;-82
2022/08/14 09:19:35;;;;;;;8.77;7.10;;;;;;;31.91;35.51;100748.81;4991067;28;20099;-80
2022/08/14 09:22:02;;;;;;;9.13;7.60;;;;;;;31.93;35.83;100740.84;5006709;28;20030;-82
2022/08/14 09:24:28;;;;;;;8.60;7.43;;;;;;;32.03;35.13;100734.72;5008192;28;20061;-83
2022/08/14 09:26:54;;;;;;;9.50;7.50;;;;;;;32.35;35.65;100731.91;5006692;28;20116;-82
2022/08/14 09:29:19;;;;;;;8.88;7.30;;;;;;;32.45;34.33;100734.16;5006607;28;20420;-83
2022/08/14 09:31:48;;;;;;;8.63;7.70;;;;;;;32.43;35.22;100744.09;5006350;28;20395;-84
2022/08/14 09:34:38;;;;;;;10.80;7.95;;;;;;;32.56;35.97;100740.00;5007523;28;20065;-85
2022/08/14 09:37:03;;;;;;;9.07;6.90;;;;;;;32.68;36.32;100727.88;5006746;28;20041;-84
2022/08/14 09:39:39;;;;;;;12.40;7.20;;;;;;;32.73;35.78;100719.19;5006740;28;20033;-81
2022/08/14 09:42:40;;;;;;;9.07;7.10;;;;;;;33.26;36.54;100713.09;5005763;28;20041;-83
2022/08/14 09:45:27;;;;;;;9.77;7.43;;;;;;;33.34;35.25;100716.88;4995472;28;20053;-82
2022/08/14 09:47:55;;;;;;;9.45;7.85;;;;;;;33.24;34.38;100709.88;5006936;28;20074;-82
2022/08/14 09:50:20;;;;;;;7.85;6.47;;;;;;;33.31;35.96;100715.59;5006710;28;20048;-83
2022/08/14 09:52:54;;;;;;;7.47;6.68;;;;;;;33.76;33.70;100713.22;5006952;28;20049;-84
2022/08/14 09:55:22;;;;;;;7.88;6.30;;;;;;;33.61;32.64;100712.16;4987786;28;20152;-82
2022/08/14 09:57:50;;;;;;;8.80;6.25;;;;;;;33.91;32.06;100705.09;5006421;28;20041;-83
2022/08/14 10:00:17;;;;;;;11.68;6.45;;;;;;;33.94;31.90;100702.31;5006526;28;20037;-84
2022/08/14 10:02:55;;;;;;;7.57;6.07;;;;;;;34.21;32.98;100701.56;4987764;28;20048;-83
2022/08/14 10:05:32;;;;;;;8.27;5.82;;;;;;;34.26;31.44;100698.41;4990444;28;20053;-82
2022/08/14 10:07:59;;;;;;;8.48;6.03;;;;;;;34.09;31.36;100692.13;5006458;28;20030;-83
2022/08/14 10:10:36;;;;;;;9.93;6.47;;;;;;;34.07;31.20;100691.69;5006738;28;20121;-82
2022/08/14 10:13:04;;;;;;;6.53;5.70;;;;;;;33.90;31.84;100681.78;4985796;28;20119;-82
2022/08/14 10:15:31;;;;;;;8.30;6.25;;;;;;;33.76;32.67;100685.13;5006579;28;20317;-86
2022/08/14 10:18:11;;;;;;;9.40;6.90;;;;;;;33.79;32.86;100684.41;5006381;28;20632;-83
2022/08/14 10:20:56;;;;;;;9.38;5.85;;;;;;;34.27;33.48;100678.38;5005962;28;20034;-83
2022/08/14 10:23:24;;;;;;;8.70;6.10;;;;;;;33.96;31.17;100682.25;4986350;28;20034;-86
2022/08/14 10:25:52;;;;;;;8.95;5.97;;;;;;;33.94;31.36;100671.41;5005734;28;20045;-82
2022/08/14 10:28:19;;;;;;;6.78;6.13;;;;;;;33.62;31.51;100674.47;4990673;28;20045;-85
2022/08/14 10:30:51;;;;;;;8.25;5.78;;;;;;;33.68;31.84;100663.72;5006264;28;20053;-84
2022/08/14 10:33:29;;;;;;;8.73;5.30;;;;;;;34.07;32.38;100671.19;4987058;28;20044;-84
2022/08/14 10:35:56;;;;;;;5.82;5.22;;;;;;;33.79;31.09;100659.13;5005869;28;21651;-84
2022/08/14 10:38:26;;;;;;;7.13;5.32;;;;;;;33.92;32.53;100664.53;5006089;28;20121;-86
2022/08/14 10:40:52;;;;;;;5.95;5.38;;;;;;;33.97;31.49;100658.59;4997616;28;20060;-84
2022/08/14 10:43:25;;;;;;;6.50;5.35;;;;;;;33.94;31.26;100650.94;4979372;28;20136;-83
2022/08/14 10:45:53;;;;;;;6.72;5.40;;;;;;;34.09;30.45;100647.16;5005996;28;20037;-84
2022/08/14 10:48:18;;;;;;;6.15;4.80;;;;;;;34.40;31.37;100642.41;5005271;28;20448;-86
2022/08/14 10:50:48;;;;;;;6.20;5.07;;;;;;;34.22;30.20;100638.50;5005914;28;20046;-84
2022/08/14 10:53:13;;;;;;;6.53;5.53;;;;;;;34.07;29.65;100637.47;5006047;28;20042;-83
2022/08/14 10:55:38;;;;;;;7.65;5.30;;;;;;;34.14;30.12;100632.78;5005864;28;20536;-85
2022/08/14 10:58:10;;;;;;;6.60;4.97;;;;;;;34.08;30.15;100634.31;4985100;28;20073;-85
2022/08/14 11:00:38;;;;;;;8.57;5.18;;;;;;;33.82;29.82;100640.69;5005297;28;20470;-84
2022/08/14 11:03:12;;;;;;;6.70;5.38;;;;;;;34.05;30.86;100639.88;5004429;28;20073;-85
2022/08/14 11:05:39;;;;;;;6.72;4.93;;;;;;;33.85;30.47;100639.13;5006044;28;20037;-86
2022/08/14 11:08:05;;;;;;;5.72;4.70;;;;;;;33.80;29.94;100635.47;5005307;28;20227;-86
2022/08/14 11:10:42;;;;;;;6.78;5.07;;;;;;;33.85;30.05;100631.53;5005199;28;20037;-84
2022/08/14 11:13:08;;;;;;;6.07;5.28;;;;;;;33.27;30.11;100624.09;5005438;28;20967;-84
2022/08/14 11:15:34;;;;;;;5.82;4.68;;;;;;;33.40;29.76;100628.34;5006062;28;20034;-84
2022/08/14 11:18:00;;;;;;;5.43;4.78;;;;;;;33.40;29.78;100625.53;5005077;28;20096;-86
2022/08/14 11:20:29;;;;;;;7.97;4.65;;;;;;;33.72;29.46;100630.88;5004457;28;20037;-86
2022/08/14 11:22:57;;;;;;;4.85;4.40;;;;;;;33.47;28.56;100634.09;5005057;28;20049;-86
2022/08/14 11:25:25;;;;;;;4.80;4.22;;;;;;;33.51;28.88;100634.16;5005230;28;20030;-86
2022/08/14 11:27:55;;;;;;;6.60;4.50;;;;;;;33.92;29.61;100633.63;5005102;28;20354;-84
2022/08/14 11:30:23;;;;;;;5.60;4.22;;;;;;;34.33;28.76;100617.81;4986300;28;20133;-84
2022/08/14 11:32:50;;;;;;;4.95;4.20;;;;;;;34.47;28.60;100619.19;5004895;28;20037;-85
2022/08/14 11:35:21;;;;;;;5.60;4.80;;;;;;;34.56;28.62;100619.72;5004215;28;20045;-85
2022/08/14 11:37:58;;;;;;;6.47;4.85;;;;;;;34.36;28.06;100619.06;5004674;28;20095;-83
2022/08/14 11:40:33;;;;;;;4.93;4.45;;;;;;;34.07;28.59;100618.63;5004798;28;20168;-84
2022/08/14 11:43:00;;;;;;;5.05;4.07;;;;;;;33.70;28.48;100616.41;5004391;28;20174;-84
2022/08/14 11:45:33;;;;;;;4.82;4.40;;;;;;;33.47;27.93;100611.63;5005105;28;20038;-87